Time;durP1;ratioP1;P1;durP2;ratioP2;P2;SDS_P1;SDS_P2;PMS_P1;PMS_P2;Temp;Humidity;BMP_temperature;BMP_pressure;BME280_temperature;BME280_humidity;BME280_pressure;Samples;Min_cycle;Max_cycle;Signal;HPM_P1;HPM_P2
2022/06/06 00:01:51;;;;;;;5.13;2.65;;;;;;;;;;5093103;28;20027;-91
2022/06/06 00:04:19;;;;;;;4.18;2.58;;;;;;;;;;5112780;28;20024;-88
2022/06/06 00:06:44;;;;;;;4.70;2.47;;;;;;;;;;5094944;28;20467;-89
2022/06/06 00:09:12;;;;;;;5.22;2.85;;;;;;;;;;5113116;28;20053;-89
2022/06/06 00:11:38;;;;;;;6.00;2.70;;;;;;;;;;5091486;28;20027;-91
2022/06/06 00:14:04;;;;;;;5.07;3.20;;;;;;;;;;5094505;28;20417;-89
2022/06/06 00:16:30;;;;;;;6.35;4.43;;;;;;;;;;5094531;28;20027;-90
2022/06/06 00:18:56;;;;;;;3.80;3.13;;;;;;;;;;5093003;28;20493;-90
2022/06/06 00:21:21;;;;;;;5.22;3.30;;;;;;;;;;5094229;28;20019;-90
2022/06/06 00:23:47;;;;;;;3.60;2.53;;;;;;;;;;5111893;27;20038;-89
2022/06/06 00:26:15;;;;;;;6.00;3.03;;;;;;;;;;5112603;28;20035;-90
2022/06/06 00:28:44;;;;;;;4.15;2.60;;;;;;;;;;5110810;28;20038;-90
2022/06/06 00:36:39;;;;;;;4.40;2.30;;;;;;;;;;5112791;28;20505;-91
2022/06/06 00:39:07;;;;;;;8.40;2.65;;;;;;;;;;5110397;28;20055;-90
2022/06/06 00:41:38;;;;;;;6.25;2.45;;;;;;;;;;5113681;28;20402;-91
2022/06/06 00:44:27;;;;;;;3.70;2.30;;;;;;;;;;5092978;28;20023;-92
2022/06/06 00:46:59;;;;;;;5.32;2.80;;;;;;;;;;5093301;28;20026;-91
2022/06/06 00:49:33;;;;;;;6.25;2.88;;;;;;;;;;5093412;28;20062;-91
2022/06/06 00:51:59;;;;;;;4.15;2.92;;;;;;;;;;5111349;28;20023;-90
2022/06/06 00:54:25;;;;;;;4.93;3.30;;;;;;;;;;5090361;28;20023;-90
2022/06/06 00:56:59;;;;;;;3.45;2.72;;;;;;;;;;5091409;28;20076;-88
2022/06/06 00:59:32;;;;;;;5.28;2.95;;;;;;;;;;5094331;28;20038;-90
2022/06/06 01:01:58;;;;;;;6.07;2.63;;;;;;;;;;5093629;28;20019;-88
2022/06/06 01:04:25;;;;;;;4.15;2.75;;;;;;;;;;5093628;28;20020;-88
2022/06/06 01:06:52;;;;;;;4.75;2.50;;;;;;;;;;5109325;28;20027;-90
2022/06/06 01:09:20;;;;;;;4.25;2.60;;;;;;;;;;5091741;28;20111;-90
2022/06/06 01:11:50;;;;;;;2.80;2.30;;;;;;;;;;5111432;28;20360;-90
2022/06/06 01:14:19;;;;;;;4.85;2.75;;;;;;;;;;5094016;28;20026;-92
2022/06/06 01:16:49;;;;;;;3.80;2.38;;;;;;;;;;5094204;28;20035;-89
2022/06/06 01:19:39;;;;;;;3.47;2.25;;;;;;;;;;5111940;28;20124;-90
2022/06/06 01:22:25;;;;;;;5.28;3.53;;;;;;;;;;5111392;28;21393;-90
2022/06/06 01:25:00;;;;;;;3.75;2.33;;;;;;;;;;5115331;28;20080;-90
2022/06/06 01:27:37;;;;;;;5.30;2.80;;;;;;;;;;5115925;28;20044;-88
2022/06/06 01:30:15;;;;;;;8.15;2.90;;;;;;;;;;5095399;28;20024;-90
2022/06/06 01:32:45;;;;;;;7.95;2.85;;;;;;;;;;5112541;28;20072;-89
2022/06/06 01:35:21;;;;;;;4.28;2.60;;;;;;;;;;5115853;28;20367;-88
2022/06/06 01:37:46;;;;;;;5.75;2.83;;;;;;;;;;5093368;28;20035;-88
2022/06/06 01:40:15;;;;;;;3.72;2.72;;;;;;;;;;5096621;28;20030;-90
2022/06/06 01:42:54;;;;;;;6.95;3.65;;;;;;;;;;5097921;28;20364;-88
2022/06/06 01:45:26;;;;;;;9.77;4.72;;;;;;;;;;5096373;28;20581;-89
2022/06/06 01:47:57;;;;;;;13.43;5.13;;;;;;;;;;5115559;28;20114;-85
2022/06/06 01:50:23;;;;;;;19.45;5.22;;;;;;;;;;5114983;28;20035;-83
2022/06/06 01:52:59;;;;;;;16.55;6.28;;;;;;;;;;5092655;28;20034;-83
2022/06/06 01:55:26;;;;;;;16.70;5.68;;;;;;;;;;5113568;28;20080;-87
2022/06/06 01:57:56;;;;;;;11.32;3.95;;;;;;;;;;5110145;28;20032;-85
2022/06/06 02:00:22;;;;;;;7.32;3.40;;;;;;;;;;5114899;28;20196;-84
2022/06/06 02:02:48;;;;;;;11.52;3.55;;;;;;;;;;5110669;28;20141;-85
2022/06/06 02:05:14;;;;;;;5.60;3.75;;;;;;;;;;5110808;28;20044;-85
2022/06/06 02:07:41;;;;;;;5.07;2.95;;;;;;;;;;5094648;28;20024;-84
2022/06/06 02:10:10;;;;;;;7.72;3.20;;;;;;;;;;5095974;28;20031;-85
2022/06/06 02:12:40;;;;;;;6.78;2.72;;;;;;;;;;5094561;28;20124;-83
2022/06/06 02:15:07;;;;;;;6.45;3.17;;;;;;;;;;5114945;28;20546;-83
2022/06/06 02:17:33;;;;;;;6.95;2.25;;;;;;;;;;5093257;28;20027;-87
2022/06/06 02:20:01;;;;;;;9.75;3.83;;;;;;;;;;5114944;28;20031;-85
2022/06/06 02:22:27;;;;;;;7.97;3.10;;;;;;;;;;5092921;28;20060;-86
2022/06/06 02:24:53;;;;;;;7.05;3.47;;;;;;;;;;5114913;28;20566;-83
2022/06/06 02:27:18;;;;;;;9.00;4.25;;;;;;;;;;5114635;28;20088;-85
2022/06/06 02:29:44;;;;;;;8.82;4.03;;;;;;;;;;5109638;28;20088;-86
2022/06/06 02:32:11;;;;;;;10.90;3.55;;;;;;;;;;5094113;28;20106;-86
2022/06/06 02:34:36;;;;;;;8.93;3.80;;;;;;;;;;5088498;28;20036;-83
2022/06/06 02:37:02;;;;;;;9.80;3.40;;;;;;;;;;5081828;28;20564;-86
2022/06/06 02:39:27;;;;;;;9.95;3.58;;;;;;;;;;5081269;28;20023;-86
2022/06/06 02:41:53;;;;;;;8.63;3.80;;;;;;;;;;5105561;28;20102;-86
2022/06/06 02:44:18;;;;;;;18.88;5.00;;;;;;;;;;5075818;28;20410;-88
2022/06/06 02:46:44;;;;;;;13.05;4.72;;;;;;;;;;5083732;28;20019;-88
2022/06/06 02:49:09;;;;;;;11.60;4.65;;;;;;;;;;5077391;28;20364;-87
2022/06/06 02:51:35;;;;;;;10.30;5.30;;;;;;;;;;5097264;28;20031;-85
2022/06/06 02:54:01;;;;;;;11.07;4.90;;;;;;;;;;5077744;28;20023;-87
2022/06/06 02:56:27;;;;;;;8.15;4.35;;;;;;;;;;5100249;28;20024;-88
2022/06/06 02:58:55;;;;;;;5.93;3.45;;;;;;;;;;5073353;28;20047;-86
2022/06/06 03:01:20;;;;;;;9.80;3.88;;;;;;;;;;5082178;28;20424;-89
2022/06/06 03:03:46;;;;;;;11.35;4.07;;;;;;;;;;5073480;28;20101;-86
2022/06/06 03:06:23;;;;;;;6.90;4.05;;;;;;;;;;5097579;28;20020;-87
2022/06/06 03:08:51;;;;;;;8.23;4.47;;;;;;;;;;5097564;28;20407;-87
2022/06/06 03:11:26;;;;;;;7.53;3.88;;;;;;;;;;5076323;28;20039;-85
2022/06/06 03:14:12;;;;;;;10.90;4.20;;;;;;;;;;5090451;28;20091;-87
2022/06/06 03:23:32;;;;;;;13.93;5.30;;;;;;;;;;5101752;28;20069;-87
2022/06/06 03:26:35;;;;;;;10.80;4.75;;;;;;;;;;5097355;28;20046;-86
2022/06/06 03:29:34;;;;;;;7.70;4.00;;;;;;;;;;5091238;28;20020;-85
2022/06/06 03:32:05;;;;;;;9.68;5.53;;;;;;;;;;5094238;28;20024;-86
2022/06/06 03:34:49;;;;;;;10.65;4.60;;;;;;;;;;5074918;28;20380;-86
2022/06/06 03:37:32;;;;;;;10.85;4.53;;;;;;;;;;5074328;28;20020;-85
2022/06/06 03:40:06;;;;;;;12.20;4.68;;;;;;;;;;5094886;28;20388;-86
2022/06/06 03:42:53;;;;;;;7.13;4.63;;;;;;;;;;5091049;28;20494;-86
2022/06/06 03:46:03;;;;;;;8.80;5.47;;;;;;;;;;5074089;28;20119;-89
2022/06/06 03:48:43;;;;;;;13.30;6.25;;;;;;;;;;4991396;28;20034;-89
2022/06/06 03:51:23;;;;;;;16.58;9.07;;;;;;;;;;5071531;28;20391;-91
2022/06/06 03:54:11;;;;;;;12.27;8.32;;;;;;;;;;5072441;28;20031;-90
2022/06/06 03:56:58;;;;;;;11.27;6.90;;;;;;;;;;5074157;28;20118;-90
2022/06/06 03:59:28;;;;;;;14.75;6.43;;;;;;;;;;5074918;28;20016;-89
2022/06/06 04:01:57;;;;;;;12.50;6.93;;;;;;;;;;5075133;28;20024;-89
2022/06/06 04:04:24;;;;;;;10.60;5.93;;;;;;;;;;5093097;28;20483;-90
2022/06/06 04:06:52;;;;;;;10.18;5.38;;;;;;;;;;5078378;28;20092;-89
2022/06/06 04:09:17;;;;;;;12.65;5.70;;;;;;;;;;5093466;28;20080;-88
2022/06/06 04:12:14;;;;;;;11.18;6.68;;;;;;;;;;5074276;28;20061;-90
2022/06/06 04:15:04;;;;;;;12.18;7.47;;;;;;;;;;5075113;28;20039;-90
2022/06/06 04:17:47;;;;;;;14.23;9.20;;;;;;;;;;5093287;28;20443;-90
2022/06/06 04:20:41;;;;;;;17.63;11.38;;;;;;;;;;5075317;28;20077;-90
2022/06/06 04:23:58;;;;;;;19.45;12.40;;;;;;;;;;5093578;28;20107;-90
2022/06/06 04:26:31;;;;;;;18.80;13.18;;;;;;;;;;5071269;28;20081;-89
2022/06/06 04:29:21;;;;;;;17.30;12.60;;;;;;;;;;5092694;28;20024;-89
2022/06/06 04:32:06;;;;;;;15.45;10.23;;;;;;;;;;5070085;28;20031;-90
2022/06/06 04:34:42;;;;;;;14.38;9.98;;;;;;;;;;5072088;28;20385;-89
2022/06/06 04:37:11;;;;;;;11.65;8.57;;;;;;;;;;5077828;28;20111;-89
2022/06/06 04:40:08;;;;;;;12.07;5.72;;;;;;;;;;5080362;28;20051;-89
2022/06/06 04:42:59;;;;;;;10.45;5.25;;;;;;;;;;5083063;28;20072;-88
2022/06/06 04:45:34;;;;;;;8.68;6.07;;;;;;;;;;5103170;28;20023;-88
2022/06/06 04:48:02;;;;;;;13.43;8.75;;;;;;;;;;5081319;28;20024;-87
2022/06/06 04:50:28;;;;;;;16.02;11.55;;;;;;;;;;5076374;28;20028;-88
2022/06/06 04:53:00;;;;;;;18.23;13.48;;;;;;;;;;5083423;28;20032;-86
2022/06/06 04:55:29;;;;;;;17.00;13.43;;;;;;;;;;5103024;28;20026;-89
2022/06/06 04:57:57;;;;;;;17.35;12.18;;;;;;;;;;5072569;28;20485;-86
2022/06/06 05:00:24;;;;;;;15.70;11.52;;;;;;;;;;5074548;28;20031;-85
2022/06/06 05:02:50;;;;;;;17.98;12.32;;;;;;;;;;5099430;28;20044;-87
2022/06/06 05:05:15;;;;;;;16.60;12.82;;;;;;;;;;5094139;28;20481;-85
2022/06/06 05:07:41;;;;;;;15.55;12.18;;;;;;;;;;5097595;28;20032;-87
2022/06/06 05:10:28;;;;;;;20.45;13.23;;;;;;;;;;5077067;28;20024;-85
2022/06/06 05:13:17;;;;;;;19.52;11.93;;;;;;;;;;5095735;28;20024;-86
2022/06/06 05:15:55;;;;;;;17.23;11.75;;;;;;;;;;5100162;28;20103;-85
2022/06/06 05:18:50;;;;;;;15.57;10.95;;;;;;;;;;5092309;28;20031;-92
2022/06/06 05:21:54;;;;;;;16.27;11.95;;;;;;;;;;5073312;28;20040;-91
2022/06/06 05:24:32;;;;;;;13.10;10.48;;;;;;;;;;5073438;28;20050;-90
2022/06/06 05:27:26;;;;;;;12.68;10.38;;;;;;;;;;5075619;28;20356;-90
2022/06/06 05:30:01;;;;;;;16.25;10.55;;;;;;;;;;5077432;28;20106;-92
2022/06/06 05:32:34;;;;;;;13.52;10.63;;;;;;;;;;5075618;28;20123;-91
2022/06/06 05:35:33;;;;;;;14.57;10.52;;;;;;;;;;5087762;28;20066;-89
2022/06/06 05:38:12;;;;;;;15.37;10.70;;;;;;;;;;5110203;28;20028;-90
2022/06/06 05:40:39;;;;;;;15.23;11.18;;;;;;;;;;5112763;28;20031;-89
2022/06/06 05:43:27;;;;;;;14.55;10.70;;;;;;;;;;5113375;28;20031;-89
2022/06/06 05:46:20;;;;;;;17.70;11.60;;;;;;;;;;5094137;28;20128;-89
2022/06/06 05:48:48;;;;;;;21.80;12.70;;;;;;;;;;5091949;28;20382;-90
2022/06/06 05:51:34;;;;;;;16.73;11.73;;;;;;;;;;5108671;28;20027;-89
2022/06/06 05:54:03;;;;;;;15.38;10.85;;;;;;;;;;5111099;28;20028;-88
2022/06/06 05:56:49;;;;;;;16.88;11.18;;;;;;;;;;5113530;28;20463;-87
2022/06/06 05:59:14;;;;;;;15.40;11.35;;;;;;;;;;5112071;28;20020;-88
2022/06/06 06:01:46;;;;;;;12.45;8.80;;;;;;;;;;5093503;28;20028;-88
2022/06/06 06:04:23;;;;;;;12.27;8.80;;;;;;;;;;5106615;28;20024;-88
2022/06/06 06:07:08;;;;;;;11.77;7.63;;;;;;;;;;5118481;28;20032;-87
2022/06/06 06:10:02;;;;;;;9.93;7.82;;;;;;;;;;5095666;28;20023;-91
2022/06/06 06:13:19;;;;;;;8.43;7.22;;;;;;;;;;5090917;28;20042;-94
2022/06/06 06:15:45;;;;;;;11.35;8.23;;;;;;;;;;5073227;28;20035;-93
2022/06/06 06:18:15;;;;;;;10.02;6.72;;;;;;;;;;5094531;28;20032;-92
2022/06/06 06:20:47;;;;;;;10.63;7.25;;;;;;;;;;5100400;28;20475;-94
2022/06/06 06:23:19;;;;;;;11.43;7.18;;;;;;;;;;5101416;28;20020;-93
2022/06/06 06:25:48;;;;;;;10.95;6.93;;;;;;;;;;5118542;28;20012;-95
2022/06/06 06:28:13;;;;;;;12.50;7.57;;;;;;;;;;5101762;28;20537;-95
2022/06/06 06:31:05;;;;;;;14.55;7.15;;;;;;;;;;5103171;28;20047;-95
2022/06/06 06:33:46;;;;;;;12.77;7.95;;;;;;;;;;5098857;28;20025;-91
2022/06/06 06:36:32;;;;;;;11.52;7.57;;;;;;;;;;5105743;28;20061;-92
2022/06/06 06:39:03;;;;;;;7.35;5.53;;;;;;;;;;5088148;28;20028;-94
2022/06/06 06:41:35;;;;;;;13.02;7.47;;;;;;;;;;5088400;28;20127;-92
2022/06/06 06:44:05;;;;;;;10.27;6.75;;;;;;;;;;5104728;28;20024;-92
2022/06/06 06:46:46;;;;;;;14.88;7.80;;;;;;;;;;5082381;28;20031;-94
2022/06/06 06:49:47;;;;;;;12.02;7.47;;;;;;;;;;5099905;28;20023;-92
2022/06/06 06:52:40;;;;;;;12.55;7.53;;;;;;;;;;5095923;28;20085;-94
2022/06/06 06:55:19;;;;;;;12.52;7.40;;;;;;;;;;5081117;28;20032;-91
2022/06/06 06:57:55;;;;;;;10.82;7.05;;;;;;;;;;5101902;28;20099;-88
2022/06/06 07:00:23;;;;;;;13.57;7.43;;;;;;;;;;5081616;28;20024;-87
2022/06/06 07:09:12;;;;;;;13.30;8.20;;;;;;;;;;5098791;28;20035;-87
2022/06/06 07:11:41;;;;;;;26.30;20.08;;;;;;;;;;5078574;28;20039;-86
2022/06/06 07:14:22;;;;;;;15.18;9.02;;;;;;;;;;5084725;28;20367;-86
2022/06/06 07:16:53;;;;;;;12.15;9.10;;;;;;;;;;5082723;28;20028;-85
2022/06/06 07:19:21;;;;;;;14.38;8.23;;;;;;;;;;5083436;28;20055;-86
2022/06/06 07:21:47;;;;;;;10.80;7.32;;;;;;;;;;5099332;28;20428;-86
2022/06/06 07:24:19;;;;;;;11.75;8.23;;;;;;;;;;5099677;28;20043;-85
2022/06/06 07:26:46;;;;;;;11.80;8.48;;;;;;;;;;5083601;28;20035;-87
2022/06/06 07:29:15;;;;;;;14.05;7.93;;;;;;;;;;5080874;28;20099;-87
2022/06/06 07:31:52;;;;;;;11.85;7.72;;;;;;;;;;5080070;28;20383;-87
2022/06/06 07:34:35;;;;;;;11.88;7.82;;;;;;;;;;5105771;28;20084;-85
2022/06/06 07:37:04;;;;;;;13.68;7.43;;;;;;;;;;5079032;28;20028;-88
2022/06/06 07:39:55;;;;;;;15.95;9.45;;;;;;;;;;5079064;28;20031;-87
2022/06/06 07:42:54;;;;;;;15.23;7.88;;;;;;;;;;5072948;28;20372;-88
2022/06/06 07:45:31;;;;;;;13.77;8.02;;;;;;;;;;5085180;28;20434;-90
2022/06/06 07:48:16;;;;;;;13.63;8.10;;;;;;;;;;5084544;28;20031;-87
2022/06/06 07:50:50;;;;;;;13.07;8.77;;;;;;;;;;5100497;28;20574;-88
2022/06/06 07:53:38;;;;;;;14.07;8.18;;;;;;;;;;5082592;28;20047;-88
2022/06/06 07:56:17;;;;;;;15.23;8.00;;;;;;;;;;5090629;28;20016;-86
2022/06/06 07:58:45;;;;;;;13.65;8.73;;;;;;;;;;5095027;28;20031;-88
2022/06/06 08:01:33;;;;;;;10.60;7.50;;;;;;;;;;5081508;28;20023;-89
2022/06/06 08:04:21;;;;;;;11.55;7.28;;;;;;;;;;5099720;28;20036;-88
2022/06/06 08:07:20;;;;;;;15.50;8.38;;;;;;;;;;5032620;28;20468;-88
2022/06/06 08:10:14;;;;;;;13.43;7.93;;;;;;;;;;5073138;28;20035;-87
2022/06/06 08:13:01;;;;;;;12.77;7.97;;;;;;;;;;5078552;28;20043;-87
2022/06/06 08:15:40;;;;;;;13.80;7.53;;;;;;;;;;5082809;28;20031;-86
2022/06/06 08:18:36;;;;;;;14.32;7.95;;;;;;;;;;5073437;28;20027;-87
2022/06/06 08:21:35;;;;;;;10.43;7.40;;;;;;;;;;5087918;28;20034;-87
2022/06/06 08:24:05;;;;;;;12.60;6.38;;;;;;;;;;5096692;28;20505;-87
2022/06/06 08:26:35;;;;;;;9.20;5.35;;;;;;;;;;5093544;28;20034;-87
2022/06/06 08:29:01;;;;;;;8.57;5.05;;;;;;;;;;5079075;28;20046;-87
2022/06/06 08:31:27;;;;;;;13.30;4.82;;;;;;;;;;5096973;28;20460;-90
2022/06/06 08:33:53;;;;;;;9.15;4.47;;;;;;;;;;5103931;28;20088;-88
2022/06/06 08:36:18;;;;;;;8.25;4.85;;;;;;;;;;5112790;28;20035;-88
2022/06/06 08:39:26;;;;;;;12.23;4.22;;;;;;;;;;5112279;28;20430;-88
2022/06/06 08:42:06;;;;;;;15.88;4.95;;;;;;;;;;5095816;28;20035;-88
2022/06/06 08:44:54;;;;;;;8.88;4.30;;;;;;;;;;5095595;28;20020;-88
2022/06/06 08:47:31;;;;;;;7.15;3.92;;;;;;;;;;5111009;28;20485;-87
2022/06/06 08:50:46;;;;;;;7.78;3.97;;;;;;;;;;5092482;28;20463;-88
2022/06/06 08:53:44;;;;;;;8.75;4.13;;;;;;;;;;5114962;27;20031;-88
2022/06/06 08:56:42;;;;;;;11.95;4.30;;;;;;;;;;5086730;28;20032;-90
2022/06/06 08:59:45;;;;;;;7.32;4.03;;;;;;;;;;5095986;28;20023;-92
2022/06/06 09:02:47;;;;;;;10.82;4.60;;;;;;;;;;5113955;28;20022;-89
2022/06/06 09:05:28;;;;;;;8.18;4.95;;;;;;;;;;5095943;28;20096;-89
2022/06/06 09:08:00;;;;;;;10.30;4.35;;;;;;;;;;5096869;28;20032;-91
2022/06/06 09:11:19;;;;;;;12.15;3.95;;;;;;;;;;5096950;28;20024;-90
2022/06/06 09:14:09;;;;;;;3.88;2.40;;;;;;;;;;5055970;28;20459;-89
2022/06/06 09:17:02;;;;;;;3.67;2.30;;;;;;;;;;5095932;28;20028;-89
2022/06/06 09:19:59;;;;;;;4.35;2.70;;;;;;;;;;5114922;28;20076;-87
2022/06/06 09:22:27;;;;;;;4.05;2.25;;;;;;;;;;5114297;28;20487;-88
2022/06/06 09:25:02;;;;;;;4.47;2.65;;;;;;;;;;5096278;28;20027;-91
2022/06/06 09:27:46;;;;;;;4.47;2.60;;;;;;;;;;5112478;28;20020;-88
2022/06/06 09:30:38;;;;;;;6.80;3.35;;;;;;;;;;5107597;28;20103;-87
2022/06/06 09:33:41;;;;;;;8.05;4.63;;;;;;;;;;5115455;28;20068;-88
2022/06/06 09:36:23;;;;;;;10.13;2.63;;;;;;;;;;5113795;28;20046;-89
2022/06/06 09:39:08;;;;;;;4.00;2.45;;;;;;;;;;5094623;28;20031;-90
2022/06/06 09:41:49;;;;;;;6.20;2.78;;;;;;;;;;5114007;28;20020;-88
2022/06/06 09:44:50;;;;;;;4.50;2.33;;;;;;;;;;5098465;28;20483;-89
2022/06/06 09:47:39;;;;;;;3.72;2.10;;;;;;;;;;4996538;28;20134;-89
2022/06/06 09:50:13;;;;;;;4.05;2.30;;;;;;;;;;5110807;28;20038;-89
2022/06/06 09:53:01;;;;;;;4.00;1.63;;;;;;;;;;5098572;28;20032;-90
2022/06/06 09:59:09;;;;;;;10.77;2.67;;;;;;;;;;5084934;28;20108;-87
2022/06/06 10:02:20;;;;;;;4.93;2.03;;;;;;;;;;5098402;27;20463;-89
2022/06/06 10:05:04;;;;;;;3.80;1.85;;;;;;;;;;5009462;28;20026;-86
2022/06/06 10:07:42;;;;;;;25.55;3.47;;;;;;;;;;5089720;28;20127;-88
2022/06/06 10:10:26;;;;;;;4.30;2.10;;;;;;;;;;5096289;28;20453;-88
2022/06/06 10:13:20;;;;;;;3.42;2.25;;;;;;;;;;5094377;28;20020;-86
2022/06/06 10:16:07;;;;;;;3.58;2.30;;;;;;;;;;5115208;28;20023;-86
2022/06/06 10:18:41;;;;;;;4.82;2.15;;;;;;;;;;5097341;28;20084;-86
2022/06/06 10:21:30;;;;;;;4.28;2.28;;;;;;;;;;5095802;28;20028;-87
2022/06/06 10:24:24;;;;;;;3.53;2.60;;;;;;;;;;5096910;28;20050;-87
2022/06/06 10:27:12;;;;;;;5.75;2.22;;;;;;;;;;5074279;28;20063;-88
2022/06/06 10:30:13;;;;;;;8.80;2.78;;;;;;;;;;5115405;28;20099;-87
2022/06/06 10:33:12;;;;;;;5.18;2.30;;;;;;;;;;5114443;28;20031;-88
2022/06/06 10:35:55;;;;;;;9.50;3.60;;;;;;;;;;5117182;27;20093;-88
2022/06/06 10:38:33;;;;;;;9.57;3.33;;;;;;;;;;5096150;28;20098;-86
2022/06/06 10:41:15;;;;;;;9.60;3.20;;;;;;;;;;5109929;28;20461;-84
2022/06/06 10:43:53;;;;;;;6.82;3.08;;;;;;;;;;5089071;28;20035;-85
2022/06/06 10:46:25;;;;;;;7.78;2.80;;;;;;;;;;5114210;28;20031;-86
2022/06/06 10:49:16;;;;;;;4.95;2.75;;;;;;;;;;5114314;28;20064;-87
2022/06/06 10:52:07;;;;;;;4.47;2.63;;;;;;;;;;5069534;28;20395;-84
2022/06/06 10:55:04;;;;;;;6.43;3.30;;;;;;;;;;5095306;28;20070;-84
2022/06/06 10:58:11;;;;;;;8.75;4.10;;;;;;;;;;5111663;28;20107;-84
2022/06/06 11:00:40;;;;;;;4.88;3.28;;;;;;;;;;5092428;28;20027;-85
2022/06/06 11:03:30;;;;;;;9.00;3.30;;;;;;;;;;5089908;28;20379;-86
2022/06/06 11:23:22;;;;;;;4.85;3.33;;;;;;;;;;5114585;28;20056;-87
2022/06/06 11:25:58;;;;;;;6.88;3.55;;;;;;;;;;5097587;28;20041;-92
2022/06/06 11:29:13;;;;;;;5.80;3.65;;;;;;;;;;5098166;28;20053;-86
2022/06/06 11:35:37;;;;;;;4.70;3.33;;;;;;;;;;5044509;28;20125;-87
2022/06/06 11:38:34;;;;;;;4.95;3.42;;;;;;;;;;5030489;28;20037;-87
2022/06/06 11:41:24;;;;;;;6.13;2.80;;;;;;;;;;5041782;28;20493;-87
2022/06/06 11:54:43;;;;;;;7.38;3.72;;;;;;;;;;5043212;28;20163;-87
2022/06/06 11:57:37;;;;;;;4.55;3.60;;;;;;;;;;5045773;28;20033;-85
2022/06/06 12:37:18;;;;;;;5.30;4.60;;;;;;;;;;4963786;28;20048;-87
2022/06/06 12:39:52;;;;;;;4.68;4.15;;;;;;;;;;5050940;28;20036;-86
2022/06/06 12:42:36;;;;;;;5.70;4.65;;;;;;;;;;5104875;28;20035;-86
2022/06/06 12:45:16;;;;;;;6.05;4.30;;;;;;;;;;5092766;28;20720;-85
2022/06/06 12:48:40;;;;;;;7.28;5.45;;;;;;;;;;5092023;28;20555;-86
2022/06/06 12:51:14;;;;;;;8.27;5.53;;;;;;;;;;5031351;28;20031;-86
2022/06/06 12:53:46;;;;;;;7.78;4.63;;;;;;;;;;5087758;28;20519;-84
2022/06/06 12:57:01;;;;;;;6.35;4.30;;;;;;;;;;5086777;28;20468;-85
2022/06/06 12:59:47;;;;;;;8.98;5.20;;;;;;;;;;5094089;28;20036;-85
2022/06/06 13:02:22;;;;;;;9.15;5.05;;;;;;;;;;5089443;28;20035;-86
2022/06/06 13:04:51;;;;;;;4.88;4.30;;;;;;;;;;5086664;28;20028;-86
2022/06/06 13:07:39;;;;;;;5.70;4.57;;;;;;;;;;5100782;28;20019;-86
2022/06/06 13:10:30;;;;;;;5.72;4.40;;;;;;;;;;5099956;28;20036;-84
2022/06/06 13:13:46;;;;;;;6.40;4.78;;;;;;;;;;5109396;28;20132;-84
2022/06/06 13:16:36;;;;;;;5.95;4.00;;;;;;;;;;5075741;28;20042;-83
2022/06/06 13:19:23;;;;;;;5.55;4.68;;;;;;;;;;5110813;28;20065;-85
2022/06/06 13:22:19;;;;;;;6.28;4.22;;;;;;;;;;5094143;28;20035;-86
2022/06/06 13:25:06;;;;;;;6.28;4.45;;;;;;;;;;5088583;28;20039;-86
2022/06/06 13:27:51;;;;;;;5.63;4.35;;;;;;;;;;5112598;28;20024;-86
2022/06/06 13:30:19;;;;;;;6.38;4.55;;;;;;;;;;5110780;28;20023;-86
2022/06/06 13:32:53;;;;;;;6.55;4.20;;;;;;;;;;5111177;28;20023;-84
2022/06/06 13:35:20;;;;;;;5.80;3.80;;;;;;;;;;5108212;28;20089;-85
2022/06/06 13:38:14;;;;;;;6.28;3.97;;;;;;;;;;5108725;28;20337;-85
2022/06/06 13:40:44;;;;;;;8.07;4.68;;;;;;;;;;5092516;28;20031;-85
2022/06/06 13:43:18;;;;;;;5.90;4.25;;;;;;;;;;5110170;28;20059;-84
2022/06/06 13:45:55;;;;;;;8.80;4.35;;;;;;;;;;5109799;28;20474;-86
2022/06/06 13:48:42;;;;;;;5.82;3.63;;;;;;;;;;5102668;28;20054;-83
2022/06/06 13:52:12;;;;;;;5.90;3.80;;;;;;;;;;5104851;28;20380;-83
2022/06/06 13:54:39;;;;;;;8.18;3.80;;;;;;;;;;5000231;28;20037;-83
2022/06/06 13:57:26;;;;;;;5.30;3.40;;;;;;;;;;5013214;28;20043;-84
2022/06/06 13:59:58;;;;;;;5.38;3.83;;;;;;;;;;5074153;28;20122;-84
2022/06/06 14:03:01;;;;;;;7.47;4.07;;;;;;;;;;5103851;28;20148;-86
2022/06/06 14:05:38;;;;;;;5.82;4.28;;;;;;;;;;5108970;28;20031;-84
2022/06/06 14:08:16;;;;;;;6.07;4.03;;;;;;;;;;5111608;28;20549;-84
2022/06/06 14:10:53;;;;;;;7.07;4.32;;;;;;;;;;5103551;28;20023;-84
2022/06/06 14:13:31;;;;;;;7.40;4.63;;;;;;;;;;5108776;28;20388;-84
2022/06/06 14:15:58;;;;;;;5.47;4.30;;;;;;;;;;5105836;28;20051;-84
2022/06/06 14:18:34;;;;;;;6.88;4.43;;;;;;;;;;5109914;28;20042;-83
2022/06/06 14:21:02;;;;;;;9.85;5.20;;;;;;;;;;5088955;28;20085;-85
2022/06/06 14:23:33;;;;;;;9.68;4.75;;;;;;;;;;5106846;28;20016;-85
2022/06/06 14:26:07;;;;;;;7.38;4.47;;;;;;;;;;5112470;28;20102;-83
2022/06/06 14:28:35;;;;;;;7.35;4.18;;;;;;;;;;5106079;28;20027;-84
2022/06/06 14:31:05;;;;;;;8.25;4.28;;;;;;;;;;5101136;28;20088;-85
2022/06/06 14:33:35;;;;;;;9.35;4.32;;;;;;;;;;5091643;28;20027;-87
2022/06/06 14:36:20;;;;;;;5.03;3.95;;;;;;;;;;5104554;27;20067;-85
2022/06/06 14:38:52;;;;;;;7.68;4.50;;;;;;;;;;5111364;28;20031;-85
2022/06/06 14:41:19;;;;;;;5.97;4.00;;;;;;;;;;5095379;28;20039;-85
2022/06/06 14:43:56;;;;;;;10.13;3.92;;;;;;;;;;5112270;28;20035;-82
2022/06/06 14:46:22;;;;;;;5.93;4.35;;;;;;;;;;5097336;27;20028;-83
2022/06/06 14:48:56;;;;;;;8.07;4.15;;;;;;;;;;5104055;28;20032;-82
2022/06/06 14:51:37;;;;;;;11.80;4.57;;;;;;;;;;5102757;28;20035;-83
2022/06/06 14:54:08;;;;;;;6.68;4.15;;;;;;;;;;5112626;28;20117;-84
2022/06/06 14:56:37;;;;;;;8.23;4.43;;;;;;;;;;5088458;28;20024;-83
2022/06/06 14:59:14;;;;;;;6.25;3.85;;;;;;;;;;5081732;28;20394;-85
2022/06/06 15:01:39;;;;;;;8.07;3.80;;;;;;;;;;5091511;28;20050;-83
2022/06/06 15:04:19;;;;;;;5.20;4.00;;;;;;;;;;5086059;28;20039;-83
2022/06/06 15:06:55;;;;;;;5.65;4.28;;;;;;;;;;5091138;28;20015;-84
2022/06/06 15:09:30;;;;;;;5.60;4.53;;;;;;;;;;5106708;28;20024;-83
2022/06/06 15:11:55;;;;;;;6.63;4.05;;;;;;;;;;5088421;28;20108;-87
2022/06/06 15:14:26;;;;;;;6.95;3.83;;;;;;;;;;5086946;28;20078;-86
2022/06/06 15:16:52;;;;;;;6.40;4.10;;;;;;;;;;5092475;28;20027;-90
2022/06/06 15:19:49;;;;;;;6.63;3.60;;;;;;;;;;5110850;28;20027;-88
2022/06/06 15:22:17;;;;;;;7.18;4.00;;;;;;;;;;5096928;28;20046;-87
2022/06/06 15:24:44;;;;;;;4.57;3.42;;;;;;;;;;5092183;28;20019;-88
2022/06/06 15:27:43;;;;;;;4.57;3.85;;;;;;;;;;5108118;28;20027;-88
2022/06/06 15:30:27;;;;;;;4.97;3.92;;;;;;;;;;5092774;28;20034;-85
2022/06/06 15:33:15;;;;;;;5.35;3.90;;;;;;;;;;5111662;28;20032;-87
2022/06/06 15:35:49;;;;;;;5.50;3.95;;;;;;;;;;5110300;27;20073;-87
2022/06/06 15:38:36;;;;;;;5.50;4.10;;;;;;;;;;5091449;28;20027;-87
2022/06/06 15:41:26;;;;;;;7.25;4.00;;;;;;;;;;5111826;28;20053;-86
2022/06/06 15:44:06;;;;;;;6.22;3.90;;;;;;;;;;5108148;28;20031;-86
2022/06/06 15:46:58;;;;;;;7.00;3.70;;;;;;;;;;5077072;28;20024;-88
2022/06/06 15:49:51;;;;;;;8.75;4.32;;;;;;;;;;5051706;28;20028;-88
2022/06/06 15:52:42;;;;;;;7.05;4.25;;;;;;;;;;5111029;28;20016;-87
2022/06/06 15:55:19;;;;;;;11.15;4.40;;;;;;;;;;5106472;28;20032;-87
2022/06/06 15:58:06;;;;;;;4.43;4.03;;;;;;;;;;5107881;28;20028;-87
2022/06/06 16:00:40;;;;;;;11.77;5.32;;;;;;;;;;5106690;28;20047;-86
2022/06/06 16:03:17;;;;;;;8.88;4.60;;;;;;;;;;5092331;28;20023;-87
2022/06/06 16:05:51;;;;;;;6.25;3.65;;;;;;;;;;5112272;28;20784;-86
2022/06/06 16:08:35;;;;;;;6.93;4.18;;;;;;;;;;5111545;28;20011;-85
2022/06/06 16:11:24;;;;;;;6.15;4.43;;;;;;;;;;5110526;28;20559;-85
2022/06/06 16:14:10;;;;;;;6.63;4.38;;;;;;;;;;5058122;28;20111;-85
2022/06/06 16:16:42;;;;;;;6.25;4.07;;;;;;;;;;5110910;28;20042;-85
2022/06/06 16:19:26;;;;;;;6.60;4.45;;;;;;;;;;5111565;28;20065;-85
2022/06/06 16:22:21;;;;;;;7.78;4.68;;;;;;;;;;5111303;28;20030;-88
2022/06/06 16:24:49;;;;;;;7.88;4.45;;;;;;;;;;5092176;28;20084;-84
2022/06/06 16:27:41;;;;;;;7.00;4.50;;;;;;;;;;5091821;28;20541;-85
2022/06/06 16:30:13;;;;;;;10.05;4.55;;;;;;;;;;5092646;28;20031;-85
2022/06/06 16:32:45;;;;;;;6.43;3.72;;;;;;;;;;5092649;28;20024;-87
2022/06/06 16:35:41;;;;;;;6.63;4.80;;;;;;;;;;5104286;28;20039;-89
2022/06/06 16:38:10;;;;;;;4.50;3.60;;;;;;;;;;5110084;28;20024;-86
2022/06/06 16:40:41;;;;;;;6.47;4.07;;;;;;;;;;5111261;28;20042;-88
2022/06/06 16:49:20;;;;;;;7.43;3.72;;;;;;;;;;5107240;28;20092;-88
2022/06/06 16:51:57;;;;;;;7.30;4.05;;;;;;;;;;5111295;28;20020;-87
2022/06/06 16:54:45;;;;;;;9.75;3.78;;;;;;;;;;5110649;28;20016;-87
2022/06/06 16:57:32;;;;;;;7.05;3.35;;;;;;;;;;5090106;28;20020;-88
2022/06/06 17:00:07;;;;;;;9.57;4.57;;;;;;;;;;5092513;28;20027;-87
2022/06/06 17:02:40;;;;;;;7.93;3.95;;;;;;;;;;5093786;28;20446;-86
2022/06/06 17:08:30;;;;;;;7.47;4.22;;;;;;;;;;5099222;28;20034;-87
2022/06/06 17:11:09;;;;;;;6.63;4.30;;;;;;;;;;5096097;28;20020;-86
2022/06/06 17:13:37;;;;;;;;;;;;;;;;;;5087820;28;20490;-86
2022/06/06 17:16:34;;;;;;;7.28;4.68;;;;;;;;;;5083154;28;19954;-86
2022/06/06 17:19:13;;;;;;;13.95;4.85;;;;;;;;;;5076648;28;20084;-86
2022/06/06 17:21:46;;;;;;;5.50;4.18;;;;;;;;;;5088079;28;20514;-86
2022/06/06 17:24:30;;;;;;;6.97;4.00;;;;;;;;;;5110542;28;20030;-89
2022/06/06 17:27:03;;;;;;;5.45;3.97;;;;;;;;;;5092366;28;20042;-88
2022/06/06 17:29:50;;;;;;;12.23;4.03;;;;;;;;;;5088042;28;20123;-89